createdAt,value
2023-04-28T00:00:58.966Z,101045.03
2023-04-28T00:02:00.927Z,101046.16
2023-04-28T00:03:02.873Z,101044.19
2023-04-28T00:04:05.338Z,101049.53
2023-04-28T00:05:07.681Z,101039.00
2023-04-28T00:06:09.799Z,101043.50
2023-04-28T00:07:11.584Z,101041.09
2023-04-28T00:08:13.435Z,101049.84
2023-04-28T00:09:15.667Z,101040.13
2023-04-28T00:10:17.531Z,101046.47
2023-04-28T00:11:19.385Z,101042.78
2023-04-28T00:12:21.183Z,101050.00
2023-04-28T00:13:23.030Z,101038.56
2023-04-28T00:14:24.820Z,101045.78
2023-04-28T00:15:26.981Z,101045.09
2023-04-28T00:16:28.803Z,101055.50
2023-04-28T00:17:30.744Z,101045.78
2023-04-28T00:18:33.706Z,101054.66
2023-04-28T00:19:35.607Z,101050.16
2023-04-28T00:20:37.522Z,101056.50
2023-04-28T00:21:39.276Z,101042.00
2023-04-28T00:22:41.130Z,101062.00
2023-04-28T00:23:42.944Z,101040.63
2023-04-28T00:24:44.908Z,101042.59
2023-04-28T00:25:54.350Z,101055.13
2023-04-28T00:26:57.465Z,101058.50
2023-04-28T00:27:59.382Z,101061.16
2023-04-28T00:29:01.256Z,101056.81
2023-04-28T00:30:03.250Z,101063.16
2023-04-28T00:31:12.512Z,101052.44
2023-04-28T00:32:14.425Z,101057.63
2023-04-28T00:33:16.231Z,101056.94
2023-04-28T00:34:18.338Z,101060.47
2023-04-28T00:35:20.470Z,101056.09
2023-04-28T00:36:22.356Z,101056.09
2023-04-28T00:38:25.987Z,101066.97
2023-04-28T00:39:27.857Z,101058.09
2023-04-28T00:40:36.876Z,101073.31
2023-04-28T00:41:38.734Z,101066.84
2023-04-28T00:42:40.646Z,101074.19
2023-04-28T00:43:49.507Z,101065.16
2023-04-28T00:44:51.457Z,101066.13
2023-04-28T00:45:53.307Z,101066.13
2023-04-28T00:46:55.873Z,101072.50
2023-04-28T00:47:59.007Z,101053.75
2023-04-28T00:49:01.203Z,101061.06
2023-04-28T00:50:04.259Z,101072.63
2023-04-28T00:51:06.800Z,101070.81
2023-04-28T00:52:08.603Z,101076.16
2023-04-28T00:53:13.605Z,101072.78
2023-04-28T00:54:15.780Z,101079.84
2023-04-28T00:55:17.875Z,101079.84
2023-04-28T00:56:19.951Z,101073.63
2023-04-28T00:57:22.896Z,101077.28
2023-04-28T00:58:25.196Z,101074.59
2023-04-28T00:59:26.964Z,101083.50
2023-04-28T01:00:29.084Z,101072.09
2023-04-28T01:01:32.213Z,101080.13
2023-04-28T01:02:35.991Z,101075.91
2023-04-28T01:03:40.079Z,101069.72
2023-04-28T01:04:46.878Z,101074.78
2023-04-28T01:05:50.126Z,101078.16
2023-04-28T01:06:55.910Z,101078.16
2023-04-28T01:07:57.906Z,101071.94
2023-04-28T01:08:59.879Z,101070.41
2023-04-28T01:10:03.632Z,101071.41
2023-04-28T01:11:10.521Z,101079.16
2023-04-28T01:12:41.125Z,101075.88
2023-04-28T01:13:42.948Z,101076.16
2023-04-28T01:14:45.323Z,101077.28
2023-04-28T01:15:47.933Z,101071.69
2023-04-28T01:16:50.059Z,101075.78
2023-04-28T01:17:51.960Z,101077.75
2023-04-28T01:18:54.307Z,101085.78
2023-04-28T01:19:57.927Z,101079.56
2023-04-28T01:20:59.766Z,101082.41
2023-04-28T01:22:02.408Z,101082.41
2023-04-28T01:23:04.661Z,101072.22
2023-04-28T01:24:07.096Z,101086.06
2023-04-28T01:25:09.167Z,101069.72
2023-04-28T01:26:11.111Z,101080.69
2023-04-28T01:27:12.937Z,101080.69
2023-04-28T01:28:16.624Z,101083.38
2023-04-28T01:29:18.603Z,101076.47
2023-04-28T01:30:21.117Z,101086.06
2023-04-28T01:31:23.118Z,101041.81
2023-04-28T01:32:24.932Z,101083.38
2023-04-28T01:33:26.961Z,101087.06
2023-04-28T01:34:28.760Z,101090.69
2023-04-28T01:35:30.581Z,101092.41
2023-04-28T01:36:34.245Z,101088.00
2023-04-28T01:37:37.828Z,101054.38
2023-04-28T01:38:39.616Z,101089.72
2023-04-28T01:39:41.405Z,101087.06
2023-04-28T01:40:43.263Z,101082.66
2023-04-28T01:41:45.216Z,101092.41
2023-04-28T01:42:47.091Z,101087.19
2023-04-28T01:43:49.107Z,101094.38
2023-04-28T01:44:50.939Z,101090.69
2023-04-28T01:45:52.756Z,101090.69
2023-04-28T01:46:54.548Z,101089.00
2023-04-28T01:47:56.894Z,101090.69
2023-04-28T01:48:58.864Z,101088.16
2023-04-28T01:50:01.733Z,101090.69
2023-04-28T01:51:05.002Z,101089.00
2023-04-28T01:52:06.963Z,101088.88
2023-04-28T01:53:08.916Z,101073.66
2023-04-28T01:54:10.790Z,101088.16
2023-04-28T01:55:12.589Z,101082.41
2023-04-28T01:56:14.894Z,101085.78
2023-04-28T01:57:17.697Z,101091.84
2023-04-28T01:58:20.418Z,101090.16
2023-04-28T01:59:22.534Z,101086.47
2023-04-28T02:00:24.559Z,101090.16
2023-04-28T02:01:26.534Z,101089.16
2023-04-28T02:02:28.927Z,101090.16
2023-04-28T02:03:32.251Z,101088.31
2023-04-28T02:04:38.878Z,101083.53
2023-04-28T02:05:40.976Z,101091.84
2023-04-28T02:06:42.750Z,101088.47
2023-04-28T02:07:44.617Z,101087.59
2023-04-28T02:08:46.633Z,101092.97
2023-04-28T02:09:48.541Z,101089.47
2023-04-28T02:10:50.928Z,101096.63
2023-04-28T02:11:52.717Z,101096.50
2023-04-28T02:12:56.053Z,101094.81
2023-04-28T02:13:57.860Z,101101.00
2023-04-28T02:14:59.739Z,101099.31
2023-04-28T02:16:02.560Z,101098.31
2023-04-28T02:17:05.565Z,101096.94
2023-04-28T02:18:09.223Z,101099.31
2023-04-28T02:19:15.813Z,101099.19
2023-04-28T02:20:17.672Z,101092.72
2023-04-28T02:21:19.524Z,101097.50
2023-04-28T02:22:21.449Z,101071.72
2023-04-28T02:23:23.228Z,101106.66
2023-04-28T02:24:25.197Z,101106.66
2023-04-28T02:25:27.296Z,101112.03
2023-04-28T02:26:29.161Z,101103.97
2023-04-28T02:27:31.331Z,101106.66
2023-04-28T02:28:33.299Z,101107.66
2023-04-28T02:29:35.091Z,101105.84
2023-04-28T02:30:36.976Z,101110.34
2023-04-28T02:31:38.942Z,101104.97
2023-04-28T02:32:40.791Z,101108.63
2023-04-28T02:33:42.761Z,101104.97
2023-04-28T02:34:44.654Z,101104.97
2023-04-28T02:35:46.931Z,101105.97
2023-04-28T02:36:48.823Z,101110.34
2023-04-28T02:37:50.885Z,101106.81
2023-04-28T02:38:53.738Z,101104.28
2023-04-28T02:39:55.728Z,101105.25
2023-04-28T02:41:01.453Z,101106.94
2023-04-28T02:42:03.837Z,101111.47
2023-04-28T02:43:05.757Z,101112.19
2023-04-28T02:44:07.580Z,101104.28
2023-04-28T02:45:09.857Z,101109.63
2023-04-28T02:46:11.854Z,101099.22
2023-04-28T02:47:13.720Z,101104.28
2023-04-28T02:48:16.084Z,101106.94
2023-04-28T02:49:17.925Z,101107.94
2023-04-28T02:50:20.468Z,101105.25
2023-04-28T02:51:22.446Z,101110.63
2023-04-28T02:52:24.316Z,101108.94
2023-04-28T02:53:26.124Z,101111.63
2023-04-28T02:54:28.155Z,101105.56
2023-04-28T02:55:31.402Z,101108.94
2023-04-28T02:56:34.376Z,101108.94
2023-04-28T02:57:37.812Z,101115.16
2023-04-28T02:58:39.753Z,101115.97
2023-04-28T02:59:41.791Z,101114.28
2023-04-28T03:00:43.865Z,101111.91
2023-04-28T03:01:46.173Z,101108.94
2023-04-28T03:02:48.108Z,101116.97
2023-04-28T03:03:50.256Z,101113.47
2023-04-28T03:04:52.384Z,101111.78
2023-04-28T03:05:56.600Z,101114.47
2023-04-28T03:06:58.650Z,101109.94
2023-04-28T03:08:00.717Z,101119.81
2023-04-28T03:09:02.648Z,101114.59
2023-04-28T03:10:04.758Z,101118.13
2023-04-28T03:11:06.860Z,101114.88
2023-04-28T03:12:08.626Z,101123.50
2023-04-28T03:13:11.161Z,101123.50
2023-04-28T03:14:13.160Z,101122.63
2023-04-28T03:15:15.057Z,101118.13
2023-04-28T03:16:16.916Z,101119.94
2023-04-28T03:17:18.959Z,101123.50
2023-04-28T03:18:22.545Z,101112.78
2023-04-28T03:19:24.553Z,101124.47
2023-04-28T03:20:28.307Z,101123.63
2023-04-28T03:21:30.594Z,101125.31
2023-04-28T03:22:32.402Z,101125.31
2023-04-28T03:23:34.402Z,101131.66
2023-04-28T03:24:36.824Z,101135.19
2023-04-28T03:25:39.416Z,101125.47
2023-04-28T03:26:41.552Z,101127.28
2023-04-28T03:27:43.863Z,101126.28
2023-04-28T03:28:46.457Z,101125.59
2023-04-28T03:29:49.442Z,101128.97
2023-04-28T03:30:51.693Z,101133.50
2023-04-28T03:31:54.488Z,101114.59
2023-04-28T03:32:56.476Z,101129.13
2023-04-28T03:33:59.647Z,101098.69
2023-04-28T03:35:01.781Z,101129.25
2023-04-28T03:36:03.909Z,101125.59
2023-04-28T03:37:05.779Z,101101.94
2023-04-28T03:38:07.733Z,101123.91
2023-04-28T03:39:10.019Z,101129.25
2023-04-28T03:40:12.116Z,101126.59
2023-04-28T03:41:52.262Z,101130.09
2023-04-28T03:43:20.085Z,101119.06
2023-04-28T03:44:44.622Z,101124.44
2023-04-28T03:45:47.593Z,101128.41
2023-04-28T03:46:49.987Z,101121.63
2023-04-28T03:47:52.628Z,101123.63
2023-04-28T03:48:54.554Z,101127.28
2023-04-28T03:49:58.817Z,101121.22
2023-04-28T03:51:00.767Z,101120.25
2023-04-28T03:52:04.478Z,101136.31
2023-04-28T03:53:06.618Z,101127.28
2023-04-28T03:54:08.662Z,101126.59
2023-04-28T03:55:11.075Z,101121.22
2023-04-28T03:56:13.376Z,101128.41
2023-04-28T03:57:15.152Z,101123.03
2023-04-28T03:58:16.983Z,101118.53
2023-04-28T03:59:19.624Z,101120.25
2023-04-28T04:00:21.505Z,101122.91
2023-04-28T04:01:27.992Z,101103.34
2023-04-28T04:02:30.076Z,101119.25
2023-04-28T04:03:32.453Z,101096.28
2023-04-28T04:04:34.713Z,101116.28
2023-04-28T04:05:36.854Z,101121.22
2023-04-28T04:06:38.778Z,101126.47
2023-04-28T04:07:41.817Z,101117.56
2023-04-28T04:08:44.161Z,101111.91
2023-04-28T04:09:45.971Z,101127.28
2023-04-28T04:10:47.853Z,101128.28
2023-04-28T04:11:49.927Z,101123.91
2023-04-28T04:12:52.056Z,101120.66
2023-04-28T04:13:53.876Z,101122.91
2023-04-28T04:14:57.312Z,101124.78
2023-04-28T04:16:00.173Z,101124.78
2023-04-28T04:17:02.389Z,101123.03
2023-04-28T04:18:04.567Z,101126.59
2023-04-28T04:19:21.114Z,101132.34
2023-04-28T04:20:25.281Z,101130.66
2023-04-28T04:21:28.027Z,101129.97
2023-04-28T04:22:30.710Z,101129.13
2023-04-28T04:23:32.569Z,101128.16
2023-04-28T04:24:34.625Z,101126.28
2023-04-28T04:25:36.462Z,101125.47
2023-04-28T04:26:39.317Z,101135.31
2023-04-28T04:27:57.258Z,101129.53
2023-04-28T04:28:59.093Z,101133.22
2023-04-28T04:30:00.884Z,101132.81
2023-04-28T04:31:03.430Z,101128.97
2023-04-28T04:32:05.436Z,101106.16
2023-04-28T04:33:08.294Z,101133.34
2023-04-28T04:34:11.123Z,101123.63
2023-04-28T04:35:12.947Z,101129.97
2023-04-28T04:36:14.909Z,101122.78
2023-04-28T04:37:16.737Z,101134.34
2023-04-28T04:39:27.822Z,101135.19
2023-04-28T04:40:29.613Z,101131.66
2023-04-28T04:41:31.722Z,101142.38
2023-04-28T04:42:50.207Z,101141.09
2023-04-28T04:43:53.938Z,101142.09
2023-04-28T04:45:01.872Z,101144.63
2023-04-28T04:46:05.806Z,101134.03
2023-04-28T04:47:07.822Z,101131.66
2023-04-28T04:48:11.642Z,101134.34
2023-04-28T04:49:13.550Z,101128.28
2023-04-28T04:50:15.884Z,101133.63
2023-04-28T04:51:18.463Z,101123.34
2023-04-28T04:52:20.342Z,101130.97
2023-04-28T04:53:22.254Z,101129.25
2023-04-28T04:54:24.148Z,101135.63
2023-04-28T04:55:26.089Z,101129.25
2023-04-28T04:56:27.925Z,101134.63
2023-04-28T04:57:29.870Z,101133.75
2023-04-28T04:58:44.611Z,101141.69
2023-04-28T05:00:09.881Z,101140.09
2023-04-28T05:01:12.561Z,101137.72
2023-04-28T05:02:14.389Z,101101.94
2023-04-28T05:03:16.470Z,101149.72
2023-04-28T05:04:19.106Z,101145.34
2023-04-28T05:05:22.852Z,101144.47
2023-04-28T05:06:44.382Z,101145.91
2023-04-28T05:07:46.980Z,101141.53
2023-04-28T05:08:49.722Z,101148.72
2023-04-28T05:09:52.228Z,101151.41
2023-04-28T05:10:54.088Z,101151.41
2023-04-28T05:11:56.136Z,101134.06
2023-04-28T05:12:57.910Z,101146.75
2023-04-28T05:13:59.868Z,101146.47
2023-04-28T05:15:01.714Z,101151.69
2023-04-28T05:16:03.796Z,101142.50
2023-04-28T05:17:32.828Z,101146.97
2023-04-28T05:18:34.738Z,101144.31
2023-04-28T05:19:36.958Z,101134.31
2023-04-28T05:20:39.272Z,101131.34
2023-04-28T05:21:41.402Z,101145.47
2023-04-28T05:22:43.310Z,101141.09
2023-04-28T05:23:45.128Z,101144.03
2023-04-28T05:24:47.177Z,101130.91
2023-04-28T05:25:49.162Z,101141.75
2023-04-28T05:26:51.848Z,101137.94
2023-04-28T05:27:57.248Z,101140.19
2023-04-28T05:28:59.013Z,101147.78
2023-04-28T05:30:01.117Z,101142.13
2023-04-28T05:31:03.212Z,101142.69
2023-04-28T05:32:06.781Z,101142.38
2023-04-28T05:33:08.835Z,101142.91
2023-04-28T05:34:11.150Z,101148.00
2023-04-28T05:35:13.705Z,101147.84
2023-04-28T05:36:17.134Z,101150.22
2023-04-28T05:37:20.793Z,101150.78
2023-04-28T05:38:23.405Z,101145.13
2023-04-28T05:39:26.417Z,101151.19
2023-04-28T05:40:30.175Z,101149.72
2023-04-28T05:41:32.025Z,101151.41
2023-04-28T05:42:33.832Z,101151.28
2023-04-28T05:43:36.153Z,101151.16
2023-04-28T05:44:38.375Z,101143.09
2023-04-28T05:45:40.621Z,101146.19
2023-04-28T05:46:42.531Z,101150.38
2023-04-28T05:47:44.505Z,101148.38
2023-04-28T05:48:46.589Z,101153.47
2023-04-28T05:49:50.903Z,101156.00
2023-04-28T05:50:52.757Z,101151.34
2023-04-28T05:51:54.575Z,101146.97
2023-04-28T05:52:56.522Z,101142.88
2023-04-28T05:53:59.380Z,101150.94
2023-04-28T05:55:03.630Z,101147.25
2023-04-28T05:56:06.144Z,101154.31
2023-04-28T05:57:08.350Z,101145.09
2023-04-28T05:58:10.321Z,101147.78
2023-04-28T05:59:12.840Z,101148.47
2023-04-28T06:00:15.107Z,101146.94
2023-04-28T06:01:17.498Z,101150.00
2023-04-28T06:02:21.964Z,101146.34
2023-04-28T06:03:24.714Z,101151.53
2023-04-28T06:04:27.556Z,101142.97
2023-04-28T06:05:30.157Z,101149.41
2023-04-28T06:06:34.163Z,101156.47
2023-04-28T06:07:36.761Z,101155.28
2023-04-28T06:08:39.324Z,101156.97
2023-04-28T06:09:41.069Z,101159.53
2023-04-28T06:10:43.116Z,101160.22
2023-04-28T06:11:44.889Z,101164.59
2023-04-28T06:12:46.815Z,101155.53
2023-04-28T06:13:52.261Z,101162.59
2023-04-28T06:14:55.464Z,101157.94
2023-04-28T06:15:57.444Z,101157.78
2023-04-28T06:16:59.348Z,101160.31
2023-04-28T06:18:01.493Z,101158.63
2023-04-28T06:19:03.825Z,101159.31
2023-04-28T06:20:07.662Z,101154.25
2023-04-28T06:21:09.543Z,101159.16
2023-04-28T06:22:11.588Z,101136.50
2023-04-28T06:23:13.465Z,101168.06
2023-04-28T06:24:19.638Z,101164.38
2023-04-28T06:25:22.567Z,101165.91
2023-04-28T06:26:25.265Z,101167.59
2023-04-28T06:27:27.141Z,101161.38
2023-04-28T06:28:31.313Z,101167.59
2023-04-28T06:29:33.172Z,101173.81
2023-04-28T06:30:35.323Z,101175.50
2023-04-28T06:31:38.639Z,101167.44
2023-04-28T06:32:40.608Z,101170.84
2023-04-28T06:33:42.413Z,101166.47
2023-04-28T06:34:44.216Z,101177.22
2023-04-28T06:35:46.639Z,101167.31
2023-04-28T06:36:50.497Z,101169.84
2023-04-28T06:37:52.297Z,101163.22
2023-04-28T06:38:54.738Z,101168.84
2023-04-28T06:39:56.536Z,101172.53
2023-04-28T06:41:00.366Z,101180.44
2023-04-28T06:42:04.175Z,101172.38
2023-04-28T06:43:09.071Z,101179.44
2023-04-28T06:44:16.066Z,101176.59
2023-04-28T06:45:18.266Z,101179.44
2023-04-28T06:46:20.143Z,101180.28
2023-04-28T06:47:22.053Z,101191.03
2023-04-28T06:48:26.079Z,101185.66
2023-04-28T06:49:27.935Z,101186.50
2023-04-28T06:50:34.646Z,101182.81
2023-04-28T06:51:41.079Z,101180.97
2023-04-28T06:52:42.836Z,101180.97
2023-04-28T06:53:44.618Z,101180.28
2023-04-28T06:54:46.507Z,101180.97
2023-04-28T06:55:48.349Z,101182.81
2023-04-28T06:56:50.112Z,101181.81
2023-04-28T06:57:51.970Z,101183.66
2023-04-28T06:58:55.762Z,101181.28
2023-04-28T06:59:57.644Z,101176.59
2023-04-28T07:00:59.678Z,101182.81
2023-04-28T07:02:01.812Z,101185.50
2023-04-28T07:03:04.585Z,101181.81
2023-04-28T07:04:06.868Z,101188.19
2023-04-28T07:05:09.565Z,101189.03
2023-04-28T07:06:11.513Z,101187.34
2023-04-28T07:07:14.371Z,101181.97
2023-04-28T07:08:17.667Z,101187.34
2023-04-28T07:09:19.569Z,101176.91
2023-04-28T07:10:21.407Z,101174.38
2023-04-28T07:11:23.518Z,101184.50
2023-04-28T07:12:25.446Z,101178.91
2023-04-28T07:13:27.223Z,101188.03
2023-04-28T07:14:29.000Z,101185.34
2023-04-28T07:15:31.582Z,101181.97
2023-04-28T07:16:33.478Z,101179.97
2023-04-28T07:17:35.538Z,101182.66
2023-04-28T07:18:37.436Z,101183.50
2023-04-28T07:19:39.206Z,101185.34
2023-04-28T07:20:41.073Z,101182.13
2023-04-28T07:21:42.825Z,101192.41
2023-04-28T07:22:44.780Z,101185.34
2023-04-28T07:23:46.740Z,101187.03
2023-04-28T07:24:48.522Z,101192.41
2023-04-28T07:25:50.311Z,101186.19
2023-04-28T07:26:52.282Z,101186.03
2023-04-28T07:27:54.357Z,101187.03
2023-04-28T07:28:56.349Z,101189.72
2023-04-28T07:29:58.281Z,101189.72
2023-04-28T07:31:00.063Z,101189.72
2023-04-28T07:32:06.859Z,101188.88
2023-04-28T07:33:09.808Z,101185.03
2023-04-28T07:34:11.658Z,101190.41
2023-04-28T07:35:13.572Z,101187.03
2023-04-28T07:36:15.624Z,101197.63
2023-04-28T07:37:19.173Z,101194.09
2023-04-28T07:38:21.154Z,101190.41
2023-04-28T07:39:22.933Z,101156.94
2023-04-28T07:40:25.936Z,101195.94
2023-04-28T07:41:29.025Z,101192.25
2023-04-28T07:42:30.865Z,101197.63
2023-04-28T07:43:32.645Z,101199.47
2023-04-28T07:44:35.234Z,101196.78
2023-04-28T07:45:41.565Z,101204.84
2023-04-28T07:46:43.402Z,101197.47
2023-04-28T07:47:45.269Z,101193.09
2023-04-28T07:48:47.075Z,101202.00
2023-04-28T07:49:48.978Z,101206.53
2023-04-28T07:50:50.855Z,101204.84
2023-04-28T07:51:54.920Z,101205.53
2023-04-28T07:52:58.055Z,101203.69
2023-04-28T07:53:59.875Z,101202.84
2023-04-28T07:55:03.011Z,101197.78
2023-04-28T07:56:05.019Z,101203.69
2023-04-28T07:57:07.115Z,101207.22
2023-04-28T07:58:09.240Z,101192.56
2023-04-28T07:59:11.177Z,101201.16
2023-04-28T08:00:13.637Z,101206.22
2023-04-28T08:01:15.670Z,101200.00
2023-04-28T08:02:17.568Z,101187.66
2023-04-28T08:03:19.660Z,101199.16
2023-04-28T08:04:22.208Z,101203.53
2023-04-28T08:05:24.673Z,101200.84
2023-04-28T08:06:26.618Z,101200.84
2023-04-28T08:07:29.098Z,101199.00
2023-04-28T08:08:31.316Z,101206.22
2023-04-28T08:09:33.211Z,101207.91
2023-04-28T08:10:35.127Z,101206.22
2023-04-28T08:11:36.960Z,101205.38
2023-04-28T08:12:39.203Z,101207.06
2023-04-28T08:13:41.031Z,101209.59
2023-04-28T08:14:42.809Z,101211.44
2023-04-28T08:15:44.697Z,101209.59
2023-04-28T08:16:47.299Z,101209.59
2023-04-28T08:17:49.093Z,101199.69
2023-04-28T08:18:51.101Z,101205.91
2023-04-28T08:19:53.084Z,101205.06
2023-04-28T08:20:55.439Z,101203.53
2023-04-28T08:21:57.393Z,101205.91
2023-04-28T08:22:59.326Z,101205.91
2023-04-28T08:24:01.904Z,101204.22
2023-04-28T08:25:04.114Z,101203.22
2023-04-28T08:26:05.975Z,101205.75
2023-04-28T08:27:08.438Z,101208.44
2023-04-28T08:28:10.505Z,101202.25
2023-04-28T08:29:12.661Z,101209.28
2023-04-28T08:30:14.477Z,101201.25
2023-04-28T08:31:16.628Z,101204.75
2023-04-28T08:32:18.984Z,101205.63
2023-04-28T08:33:20.784Z,101203.75
2023-04-28T08:34:22.818Z,101198.38
2023-04-28T08:35:24.951Z,101204.75
2023-04-28T08:36:31.850Z,101191.50
2023-04-28T08:37:34.319Z,101199.09
2023-04-28T08:38:36.093Z,101199.94
2023-04-28T08:39:37.936Z,101206.16
2023-04-28T08:40:42.731Z,101199.09
2023-04-28T08:41:44.566Z,101199.94
2023-04-28T08:42:47.666Z,101202.63
2023-04-28T08:43:49.726Z,101204.31
2023-04-28T08:44:59.358Z,101204.31
2023-04-28T08:46:06.853Z,101202.47
2023-04-28T08:47:16.682Z,101196.09
2023-04-28T08:48:23.192Z,101204.69
2023-04-28T08:49:35.272Z,101216.28
2023-04-28T08:50:41.568Z,101209.06
2023-04-28T08:52:09.342Z,101213.13
2023-04-28T08:53:13.931Z,101209.44
2023-04-28T08:54:26.693Z,101201.69
2023-04-28T08:55:29.086Z,101216.81
2023-04-28T08:56:34.055Z,101210.06
2023-04-28T08:57:41.400Z,101209.22
2023-04-28T08:58:43.760Z,101217.97
2023-04-28T08:59:45.720Z,101216.28
2023-04-28T09:00:47.499Z,101209.22
2023-04-28T09:01:50.542Z,101218.13
2023-04-28T09:02:52.479Z,101211.06
2023-04-28T09:03:54.831Z,101206.69
2023-04-28T09:04:57.879Z,101214.59
2023-04-28T09:06:01.542Z,101214.59
2023-04-28T09:07:03.523Z,101214.59
2023-04-28T09:08:05.896Z,101209.22
2023-04-28T09:09:26.633Z,101210.91
2023-04-28T09:10:28.606Z,101206.06
2023-04-28T09:11:30.493Z,101194.25
2023-04-28T09:12:38.582Z,101211.75
2023-04-28T09:13:41.407Z,101212.63
2023-04-28T09:14:43.231Z,101214.44
2023-04-28T09:15:45.688Z,101217.13
2023-04-28T09:16:47.702Z,101213.44
2023-04-28T09:17:51.294Z,101211.75
2023-04-28T09:18:58.236Z,101217.13
2023-04-28T09:20:00.178Z,101217.81
2023-04-28T09:21:07.620Z,101213.75
2023-04-28T09:22:24.938Z,101215.97
2023-04-28T09:23:28.773Z,101208.44
2023-04-28T09:24:36.156Z,101203.38
2023-04-28T09:25:37.917Z,101211.31
2023-04-28T09:26:53.527Z,101205.06
2023-04-28T09:27:56.752Z,101212.81
2023-04-28T09:29:15.544Z,101197.00
2023-04-28T09:30:17.453Z,101205.44
2023-04-28T09:31:28.279Z,101207.44
2023-04-28T09:32:31.035Z,101210.81
2023-04-28T09:33:33.118Z,101205.75
2023-04-28T09:34:47.690Z,101199.69
2023-04-28T09:35:49.926Z,101206.44
2023-04-28T09:36:51.841Z,101201.25
2023-04-28T09:37:58.946Z,101199.56
2023-04-28T09:39:01.335Z,101199.38
2023-04-28T09:40:12.626Z,101197.56
2023-04-28T09:41:14.506Z,101201.94
2023-04-28T09:42:39.924Z,101198.25
2023-04-28T09:43:41.694Z,101199.78
2023-04-28T09:44:53.432Z,101190.31
2023-04-28T09:45:58.508Z,101192.19
2023-04-28T09:47:01.252Z,101199.06
2023-04-28T09:48:11.138Z,101194.69
2023-04-28T09:49:13.893Z,101199.06
2023-04-28T09:50:18.335Z,101197.38
2023-04-28T09:51:21.195Z,101194.69
2023-04-28T09:52:24.447Z,101189.50
2023-04-28T09:53:27.459Z,101191.31
2023-04-28T09:54:30.796Z,101190.81
2023-04-28T09:55:35.119Z,101193.00
2023-04-28T09:56:41.000Z,101195.56
2023-04-28T09:57:45.742Z,101199.06
2023-04-28T09:58:50.761Z,101198.38
2023-04-28T09:59:53.638Z,101199.94
2023-04-28T10:00:58.003Z,101196.38
2023-04-28T10:02:02.529Z,101194.41
2023-04-28T10:03:10.694Z,101199.66
2023-04-28T10:04:13.818Z,101189.03
2023-04-28T10:05:17.184Z,101199.78
2023-04-28T10:06:20.021Z,101195.28
2023-04-28T10:07:22.018Z,101183.66
2023-04-28T10:08:25.098Z,101187.50
2023-04-28T10:09:28.952Z,101189.19
2023-04-28T10:10:31.534Z,101191.88
2023-04-28T10:11:34.168Z,101186.34
2023-04-28T10:12:38.813Z,101192.72
2023-04-28T10:13:42.418Z,101197.09
2023-04-28T10:14:45.723Z,101193.59
2023-04-28T10:15:49.496Z,101181.97
2023-04-28T10:16:54.947Z,101194.41
2023-04-28T10:17:59.248Z,101181.97
2023-04-28T10:19:03.392Z,101180.56
2023-04-28T10:20:06.491Z,101183.66
2023-04-28T10:21:09.590Z,101182.84
2023-04-28T10:22:17.886Z,101184.53
2023-04-28T10:23:59.296Z,101182.75
2023-04-28T10:25:13.101Z,101182.75
2023-04-28T10:26:19.853Z,101178.53
2023-04-28T10:27:29.772Z,101175.00
2023-04-28T10:28:31.575Z,101173.31
2023-04-28T10:29:34.572Z,101181.38
2023-04-28T10:30:38.208Z,101181.69
2023-04-28T10:32:17.986Z,101177.38
2023-04-28T10:33:25.469Z,101172.69
2023-04-28T10:34:30.223Z,101183.59
2023-04-28T10:35:33.336Z,101176.69
2023-04-28T10:36:55.908Z,101167.53
2023-04-28T10:38:16.936Z,101173.69
2023-04-28T10:39:18.935Z,101143.44
2023-04-28T10:40:36.848Z,101173.69
2023-04-28T10:41:38.858Z,101184.44
2023-04-28T10:42:53.709Z,101140.50
2023-04-28T10:43:55.488Z,101180.06
2023-04-28T10:44:57.255Z,101178.69
2023-04-28T10:46:02.858Z,101179.38
2023-04-28T10:47:09.919Z,101177.69
2023-04-28T10:48:11.855Z,101174.84
2023-04-28T10:49:13.726Z,101176.69
2023-04-28T10:50:15.620Z,101172.31
2023-04-28T10:51:22.701Z,101172.31
2023-04-28T10:52:33.554Z,101170.31
2023-04-28T10:53:51.949Z,101168.31
2023-04-28T10:55:28.737Z,101173.88
2023-04-28T10:56:30.653Z,101178.13
2023-04-28T10:57:32.858Z,101180.44
2023-04-28T10:58:37.480Z,101184.44
2023-04-28T10:59:39.277Z,101154.19
2023-04-28T11:00:42.170Z,101178.38
2023-04-28T11:01:45.851Z,101179.38
2023-04-28T11:02:49.432Z,101182.06
2023-04-28T11:04:04.937Z,101178.00
2023-04-28T11:05:14.041Z,101187.97
2023-04-28T11:06:27.215Z,101192.50
2023-04-28T11:07:29.010Z,101192.19
2023-04-28T11:08:31.042Z,101197.88
2023-04-28T11:09:32.896Z,101200.56
2023-04-28T11:11:14.126Z,101198.56
2023-04-28T11:12:16.150Z,101203.31
2023-04-28T11:13:34.365Z,101204.47
2023-04-28T11:14:40.325Z,101207.16
2023-04-28T11:15:42.374Z,101192.13
2023-04-28T11:17:02.669Z,101212.00
2023-04-28T11:18:10.417Z,101205.63
2023-04-28T11:19:16.544Z,101208.63
2023-04-28T11:20:23.300Z,101214.69
2023-04-28T11:21:28.280Z,101208.25
2023-04-28T11:22:31.261Z,101224.78
2023-04-28T11:23:33.244Z,101228.47
2023-04-28T11:24:35.030Z,101232.97
2023-04-28T11:25:58.015Z,101237.03
2023-04-28T11:27:00.696Z,101238.91
2023-04-28T11:28:07.294Z,101248.97
2023-04-28T11:29:09.772Z,101256.03
2023-04-28T11:30:24.219Z,101250.66
2023-04-28T11:31:26.526Z,101246.09
2023-04-28T11:32:40.344Z,101257.16
2023-04-28T11:33:43.371Z,101268.78
2023-04-28T11:34:51.850Z,101268.09
2023-04-28T11:35:53.613Z,101256.09
2023-04-28T11:36:55.873Z,101277.16
2023-04-28T11:38:06.734Z,101268.94
2023-04-28T11:39:11.044Z,101281.66
2023-04-28T11:40:13.788Z,101274.78
2023-04-28T11:41:15.631Z,101291.72
2023-04-28T11:42:17.631Z,101283.84
2023-04-28T11:43:40.214Z,101286.53
2023-04-28T11:44:53.133Z,101284.53
2023-04-28T11:45:55.016Z,101292.59
2023-04-28T11:47:02.106Z,101291.03
2023-04-28T11:48:21.348Z,101296.97
2023-04-28T11:49:25.002Z,101285.06
2023-04-28T11:50:36.654Z,101286.94
2023-04-28T11:51:39.416Z,101292.19
2023-04-28T11:52:53.440Z,101293.88
2023-04-28T11:53:55.877Z,101297.41
2023-04-28T11:55:00.511Z,101296.84
2023-04-28T11:56:09.673Z,101284.38
2023-04-28T11:57:22.024Z,101289.63
2023-04-28T11:58:24.952Z,101293.16
2023-04-28T11:59:31.821Z,101292.63
2023-04-28T12:00:33.700Z,101280.00
2023-04-28T12:01:45.138Z,101287.38
2023-04-28T12:02:47.624Z,101283.00
2023-04-28T12:03:49.736Z,101289.25
2023-04-28T12:04:52.185Z,101292.94
2023-04-28T12:05:54.090Z,101288.56
2023-04-28T12:07:00.304Z,101287.00
2023-04-28T12:08:02.148Z,101300.13
2023-04-28T12:09:16.086Z,101291.38
2023-04-28T12:10:18.881Z,101291.06
2023-04-28T12:11:22.568Z,101292.94
2023-04-28T12:12:40.550Z,101287.56
2023-04-28T12:14:07.839Z,101288.50